sensor_id;sensor_type;location;lat;lon;timestamp;pressure;altitude;pressure_sealevel;temperature;humidity
63339;BME280;47485;51.378;-1.342;2022-12-16T00:01:03;100073.38;;;-3.61;31.83
63339;BME280;47485;51.378;-1.342;2022-12-16T00:03:30;100072.46;;;-2.93;30.87
63339;BME280;47485;51.378;-1.342;2022-12-16T00:05:57;100073.52;;;-0.99;30.11
63339;BME280;47485;51.378;-1.342;2022-12-16T00:08:30;100074.65;;;-2.51;31.30
63339;BME280;47485;51.378;-1.342;2022-12-16T00:10:58;100072.12;;;0.25;29.37
63339;BME280;47485;51.378;-1.342;2022-12-16T00:13:26;100070.45;;;0.09;28.00
63339;BME280;47485;51.378;-1.342;2022-12-16T00:15:53;100073.03;;;1.83;26.31
63339;BME280;47485;51.378;-1.342;2022-12-16T00:18:21;100079.79;;;1.21;27.15
63339;BME280;47485;51.378;-1.342;2022-12-16T00:20:51;100074.56;;;1.80;26.08
63339;BME280;47485;51.378;-1.342;2022-12-16T00:23:19;100074.38;;;2.58;25.61
63339;BME280;47485;51.378;-1.342;2022-12-16T00:25:46;100074.30;;;1.59;26.74
63339;BME280;47485;51.378;-1.342;2022-12-16T00:28:15;100078.02;;;0.31;27.96
63339;BME280;47485;51.378;-1.342;2022-12-16T00:30:43;100085.73;;;-0.13;28.23
63339;BME280;47485;51.378;-1.342;2022-12-16T00:33:10;100090.44;;;-1.69;28.32
63339;BME280;47485;51.378;-1.342;2022-12-16T00:35:37;100089.07;;;-0.79;26.77
63339;BME280;47485;51.378;-1.342;2022-12-16T00:38:03;100089.81;;;1.54;26.21
63339;BME280;47485;51.378;-1.342;2022-12-16T00:40:30;100093.54;;;0.30;27.26
63339;BME280;47485;51.378;-1.342;2022-12-16T00:42:58;100089.17;;;-0.81;28.49
63339;BME280;47485;51.378;-1.342;2022-12-16T00:45:25;100085.76;;;-0.96;28.75
63339;BME280;47485;51.378;-1.342;2022-12-16T00:47:52;100088.06;;;-0.62;28.39
63339;BME280;47485;51.378;-1.342;2022-12-16T00:50:19;100089.72;;;-0.41;28.23
63339;BME280;47485;51.378;-1.342;2022-12-16T00:52:47;100090.95;;;-0.19;27.57
63339;BME280;47485;51.378;-1.342;2022-12-16T00:55:15;100087.15;;;0.44;28.16
63339;BME280;47485;51.378;-1.342;2022-12-16T00:57:42;100090.17;;;-0.13;28.90
63339;BME280;47485;51.378;-1.342;2022-12-16T01:00:11;100092.56;;;-1.17;29.19
63339;BME280;47485;51.378;-1.342;2022-12-16T01:02:39;100090.23;;;-1.28;29.35
63339;BME280;47485;51.378;-1.342;2022-12-16T01:05:06;100089.24;;;-2.00;29.76
63339;BME280;47485;51.378;-1.342;2022-12-16T01:07:33;100091.60;;;-3.04;31.27
63339;BME280;47485;51.378;-1.342;2022-12-16T01:10:01;100093.10;;;-2.06;31.99
63339;BME280;47485;51.378;-1.342;2022-12-16T01:12:28;100094.54;;;-3.55;33.15
63339;BME280;47485;51.378;-1.342;2022-12-16T01:14:55;100094.55;;;-2.82;33.50
63339;BME280;47485;51.378;-1.342;2022-12-16T01:17:22;100099.20;;;-2.27;32.97
63339;BME280;47485;51.378;-1.342;2022-12-16T01:19:49;100098.96;;;-1.48;32.23
63339;BME280;47485;51.378;-1.342;2022-12-16T01:22:16;100102.14;;;-2.76;33.12
63339;BME280;47485;51.378;-1.342;2022-12-16T01:24:43;100105.83;;;-2.74;34.20
63339;BME280;47485;51.378;-1.342;2022-12-16T01:27:10;100105.60;;;-2.04;33.25
63339;BME280;47485;51.378;-1.342;2022-12-16T01:29:37;100109.61;;;-2.61;33.34
63339;BME280;47485;51.378;-1.342;2022-12-16T01:32:04;100108.69;;;-2.77;34.06
63339;BME280;47485;51.378;-1.342;2022-12-16T01:34:31;100115.02;;;-3.74;33.52
63339;BME280;47485;51.378;-1.342;2022-12-16T01:36:58;100113.94;;;-2.79;32.30
63339;BME280;47485;51.378;-1.342;2022-12-16T01:39:25;100116.63;;;-3.54;33.19
63339;BME280;47485;51.378;-1.342;2022-12-16T01:41:52;100113.15;;;-1.98;33.22
63339;BME280;47485;51.378;-1.342;2022-12-16T01:44:22;100118.03;;;-3.18;34.37
63339;BME280;47485;51.378;-1.342;2022-12-16T01:46:52;100118.59;;;-3.47;34.25
63339;BME280;47485;51.378;-1.342;2022-12-16T01:49:23;100123.57;;;-3.27;34.52
63339;BME280;47485;51.378;-1.342;2022-12-16T01:51:53;100127.86;;;-2.14;33.96
63339;BME280;47485;51.378;-1.342;2022-12-16T01:54:23;100131.14;;;-4.22;34.18
63339;BME280;47485;51.378;-1.342;2022-12-16T01:56:54;100135.69;;;-3.05;34.83
63339;BME280;47485;51.378;-1.342;2022-12-16T01:59:24;100140.68;;;-3.70;34.63
63339;BME280;47485;51.378;-1.342;2022-12-16T02:01:53;100147.02;;;-2.96;34.79
63339;BME280;47485;51.378;-1.342;2022-12-16T02:04:20;100152.27;;;-3.12;35.01
63339;BME280;47485;51.378;-1.342;2022-12-16T02:06:48;100153.84;;;-4.77;34.05
63339;BME280;47485;51.378;-1.342;2022-12-16T02:09:15;100160.63;;;-2.45;34.66
63339;BME280;47485;51.378;-1.342;2022-12-16T02:12:23;100165.17;;;-2.97;34.66
63339;BME280;47485;51.378;-1.342;2022-12-16T02:15:06;100168.69;;;-3.85;34.59
63339;BME280;47485;51.378;-1.342;2022-12-16T02:17:44;100174.93;;;-3.01;34.78
63339;BME280;47485;51.378;-1.342;2022-12-16T02:20:33;100173.43;;;-4.23;34.80
63339;BME280;47485;51.378;-1.342;2022-12-16T02:23:22;100175.41;;;-3.71;35.60
63339;BME280;47485;51.378;-1.342;2022-12-16T02:26:12;100175.69;;;-3.16;33.93
63339;BME280;47485;51.378;-1.342;2022-12-16T02:29:03;100180.82;;;-2.75;34.43
63339;BME280;47485;51.378;-1.342;2022-12-16T02:31:36;100183.62;;;-3.78;34.58
63339;BME280;47485;51.378;-1.342;2022-12-16T02:34:13;100183.16;;;-3.67;33.87
63339;BME280;47485;51.378;-1.342;2022-12-16T02:36:53;100190.81;;;-4.00;35.11
63339;BME280;47485;51.378;-1.342;2022-12-16T02:39:26;100194.49;;;-3.04;36.22
63339;BME280;47485;51.378;-1.342;2022-12-16T02:41:59;100191.64;;;-4.24;35.14
63339;BME280;47485;51.378;-1.342;2022-12-16T02:44:34;100191.92;;;-3.41;34.17
63339;BME280;47485;51.378;-1.342;2022-12-16T02:47:05;100195.40;;;-2.12;34.09
63339;BME280;47485;51.378;-1.342;2022-12-16T02:49:44;100195.65;;;-2.86;33.93
63339;BME280;47485;51.378;-1.342;2022-12-16T02:52:12;100201.12;;;-2.83;34.66
63339;BME280;47485;51.378;-1.342;2022-12-16T02:54:40;100196.39;;;-3.24;33.59
63339;BME280;47485;51.378;-1.342;2022-12-16T02:57:15;100202.48;;;-5.21;35.34
63339;BME280;47485;51.378;-1.342;2022-12-16T02:59:53;100203.71;;;-3.70;34.54
63339;BME280;47485;51.378;-1.342;2022-12-16T03:02:26;100205.60;;;-4.29;35.97
63339;BME280;47485;51.378;-1.342;2022-12-16T03:05:01;100203.65;;;-3.77;34.53
63339;BME280;47485;51.378;-1.342;2022-12-16T03:07:32;100203.93;;;-3.03;34.20
63339;BME280;47485;51.378;-1.342;2022-12-16T03:10:01;100204.24;;;-2.18;33.28
63339;BME280;47485;51.378;-1.342;2022-12-16T03:12:31;100204.53;;;-2.24;33.25
63339;BME280;47485;51.378;-1.342;2022-12-16T03:15:00;100203.95;;;-2.33;31.93
63339;BME280;47485;51.378;-1.342;2022-12-16T03:17:28;100208.42;;;-3.70;32.36
63339;BME280;47485;51.378;-1.342;2022-12-16T03:20:02;100208.20;;;-3.48;33.15
63339;BME280;47485;51.378;-1.342;2022-12-16T03:22:33;100211.26;;;-3.71;34.03
63339;BME280;47485;51.378;-1.342;2022-12-16T03:25:02;100214.02;;;-4.91;34.60
63339;BME280;47485;51.378;-1.342;2022-12-16T03:27:34;100210.94;;;-3.91;34.96
63339;BME280;47485;51.378;-1.342;2022-12-16T03:30:09;100208.90;;;-3.47;33.55
63339;BME280;47485;51.378;-1.342;2022-12-16T03:32:40;100208.89;;;-3.79;33.03
63339;BME280;47485;51.378;-1.342;2022-12-16T03:35:14;100205.73;;;-2.72;34.05
63339;BME280;47485;51.378;-1.342;2022-12-16T03:37:46;100202.30;;;-2.84;34.00
63339;BME280;47485;51.378;-1.342;2022-12-16T03:40:15;100200.36;;;-3.68;34.99
63339;BME280;47485;51.378;-1.342;2022-12-16T03:42:43;100201.67;;;-3.04;34.88
63339;BME280;47485;51.378;-1.342;2022-12-16T03:45:14;100199.41;;;-2.48;34.02
63339;BME280;47485;51.378;-1.342;2022-12-16T03:47:47;100200.04;;;-2.19;33.04
63339;BME280;47485;51.378;-1.342;2022-12-16T03:50:14;100194.79;;;-2.28;32.90
63339;BME280;47485;51.378;-1.342;2022-12-16T03:52:41;100196.43;;;-1.52;32.60
63339;BME280;47485;51.378;-1.342;2022-12-16T03:55:09;100191.30;;;-2.40;31.80
63339;BME280;47485;51.378;-1.342;2022-12-16T03:57:35;100198.71;;;-1.81;33.22
63339;BME280;47485;51.378;-1.342;2022-12-16T04:00:03;100198.38;;;-2.60;31.95
63339;BME280;47485;51.378;-1.342;2022-12-16T04:02:30;100203.02;;;-2.95;32.10
63339;BME280;47485;51.378;-1.342;2022-12-16T04:04:57;100211.07;;;-2.87;34.25
63339;BME280;47485;51.378;-1.342;2022-12-16T04:07:24;100212.76;;;-3.26;34.38
63339;BME280;47485;51.378;-1.342;2022-12-16T04:09:52;100212.93;;;-3.95;34.95
63339;BME280;47485;51.378;-1.342;2022-12-16T04:12:19;100215.73;;;-4.02;36.28
63339;BME280;47485;51.378;-1.342;2022-12-16T04:14:46;100220.09;;;-4.79;38.23
63339;BME280;47485;51.378;-1.342;2022-12-16T04:17:13;100221.00;;;-3.25;36.74
63339;BME280;47485;51.378;-1.342;2022-12-16T04:19:41;100221.21;;;-4.40;35.90
63339;BME280;47485;51.378;-1.342;2022-12-16T04:22:12;100226.36;;;-3.75;35.29
63339;BME280;47485;51.378;-1.342;2022-12-16T04:24:39;100227.22;;;-4.07;35.21
63339;BME280;47485;51.378;-1.342;2022-12-16T04:27:07;100230.93;;;-2.97;34.85
63339;BME280;47485;51.378;-1.342;2022-12-16T04:29:34;100231.38;;;-2.66;34.81
63339;BME280;47485;51.378;-1.342;2022-12-16T04:32:01;100229.88;;;-2.86;34.29
63339;BME280;47485;51.378;-1.342;2022-12-16T04:34:27;100228.64;;;-2.11;33.50
63339;BME280;47485;51.378;-1.342;2022-12-16T04:36:56;100227.68;;;-1.80;32.84
63339;BME280;47485;51.378;-1.342;2022-12-16T04:39:23;100221.00;;;-2.05;32.92
63339;BME280;47485;51.378;-1.342;2022-12-16T04:41:51;100219.47;;;-1.76;32.10
63339;BME280;47485;51.378;-1.342;2022-12-16T04:44:19;100216.45;;;-2.53;31.24
63339;BME280;47485;51.378;-1.342;2022-12-16T04:46:45;100211.92;;;-1.39;30.00
63339;BME280;47485;51.378;-1.342;2022-12-16T04:49:12;100212.11;;;-0.39;29.08
63339;BME280;47485;51.378;-1.342;2022-12-16T04:51:39;100214.48;;;-0.04;28.50
63339;BME280;47485;51.378;-1.342;2022-12-16T04:54:06;100219.57;;;-0.76;29.15
63339;BME280;47485;51.378;-1.342;2022-12-16T04:56:33;100223.77;;;-1.09;30.70
63339;BME280;47485;51.378;-1.342;2022-12-16T04:59:00;100231.08;;;-2.62;31.27
63339;BME280;47485;51.378;-1.342;2022-12-16T05:01:27;100234.84;;;-2.85;31.42
63339;BME280;47485;51.378;-1.342;2022-12-16T05:03:55;100235.81;;;-3.18;31.53
63339;BME280;47485;51.378;-1.342;2022-12-16T05:06:22;100240.79;;;-2.28;31.08
63339;BME280;47485;51.378;-1.342;2022-12-16T05:08:49;100239.74;;;-1.65;30.42
63339;BME280;47485;51.378;-1.342;2022-12-16T05:11:16;100244.97;;;-2.19;30.30
63339;BME280;47485;51.378;-1.342;2022-12-16T05:13:43;100253.96;;;-1.87;31.66
63339;BME280;47485;51.378;-1.342;2022-12-16T05:16:10;100253.68;;;-3.27;34.66
63339;BME280;47485;51.378;-1.342;2022-12-16T05:18:37;100255.17;;;-5.75;36.54
63339;BME280;47485;51.378;-1.342;2022-12-16T05:21:04;100254.67;;;-5.50;37.40
63339;BME280;47485;51.378;-1.342;2022-12-16T05:23:31;100252.10;;;-4.29;36.78
63339;BME280;47485;51.378;-1.342;2022-12-16T05:25:58;100252.00;;;-4.58;36.71
63339;BME280;47485;51.378;-1.342;2022-12-16T05:28:26;100250.54;;;-5.26;36.45
63339;BME280;47485;51.378;-1.342;2022-12-16T05:30:54;100245.18;;;-3.82;36.24
63339;BME280;47485;51.378;-1.342;2022-12-16T05:33:21;100247.60;;;-3.14;36.09
63339;BME280;47485;51.378;-1.342;2022-12-16T05:35:48;100255.23;;;-2.88;35.26
63339;BME280;47485;51.378;-1.342;2022-12-16T05:38:14;100255.71;;;-2.12;33.31
63339;BME280;47485;51.378;-1.342;2022-12-16T05:40:41;100260.66;;;-2.99;33.03
63339;BME280;47485;51.378;-1.342;2022-12-16T05:43:08;100260.32;;;-2.07;32.94
63339;BME280;47485;51.378;-1.342;2022-12-16T05:45:35;100255.24;;;-2.37;32.35
63339;BME280;47485;51.378;-1.342;2022-12-16T05:48:02;100253.98;;;-1.28;31.53
63339;BME280;47485;51.378;-1.342;2022-12-16T05:50:28;100254.94;;;-0.37;30.02
63339;BME280;47485;51.378;-1.342;2022-12-16T05:52:56;100256.41;;;-2.33;29.72
63339;BME280;47485;51.378;-1.342;2022-12-16T05:55:23;100257.14;;;-1.26;29.42
63339;BME280;47485;51.378;-1.342;2022-12-16T05:57:50;100262.29;;;-1.57;30.60
63339;BME280;47485;51.378;-1.342;2022-12-16T06:00:19;100264.96;;;-1.62;31.12
63339;BME280;47485;51.378;-1.342;2022-12-16T06:02:46;100269.29;;;-1.62;31.24
63339;BME280;47485;51.378;-1.342;2022-12-16T06:05:14;100275.42;;;-2.70;31.98
63339;BME280;47485;51.378;-1.342;2022-12-16T06:07:41;100276.90;;;-2.13;31.98
63339;BME280;47485;51.378;-1.342;2022-12-16T06:10:08;100273.96;;;-2.49;31.83
63339;BME280;47485;51.378;-1.342;2022-12-16T06:12:35;100270.44;;;-2.66;31.11
63339;BME280;47485;51.378;-1.342;2022-12-16T06:15:02;100268.78;;;-1.88;29.83
63339;BME280;47485;51.378;-1.342;2022-12-16T06:17:29;100268.42;;;-2.03;28.88
63339;BME280;47485;51.378;-1.342;2022-12-16T06:19:56;100268.82;;;-0.74;27.87
63339;BME280;47485;51.378;-1.342;2022-12-16T06:22:23;100271.60;;;-0.46;26.81
63339;BME280;47485;51.378;-1.342;2022-12-16T06:24:49;100273.22;;;1.19;26.45
63339;BME280;47485;51.378;-1.342;2022-12-16T06:27:17;100276.61;;;0.52;26.43
63339;BME280;47485;51.378;-1.342;2022-12-16T06:29:44;100278.12;;;-0.06;26.47
63339;BME280;47485;51.378;-1.342;2022-12-16T06:32:11;100282.56;;;-0.88;27.71
63339;BME280;47485;51.378;-1.342;2022-12-16T06:34:38;100288.76;;;-1.18;28.87
63339;BME280;47485;51.378;-1.342;2022-12-16T06:37:05;100288.74;;;-1.90;29.47
63339;BME280;47485;51.378;-1.342;2022-12-16T06:39:31;100288.97;;;-1.61;29.92
63339;BME280;47485;51.378;-1.342;2022-12-16T06:41:58;100285.30;;;-1.36;29.73
63339;BME280;47485;51.378;-1.342;2022-12-16T06:44:25;100288.38;;;-1.32;29.29
63339;BME280;47485;51.378;-1.342;2022-12-16T06:46:52;100294.74;;;-1.23;28.66
63339;BME280;47485;51.378;-1.342;2022-12-16T06:49:19;100294.22;;;-0.52;28.42
63339;BME280;47485;51.378;-1.342;2022-12-16T06:51:46;100298.80;;;-2.31;28.41
63339;BME280;47485;51.378;-1.342;2022-12-16T06:54:13;100296.27;;;-1.56;28.28
63339;BME280;47485;51.378;-1.342;2022-12-16T06:56:39;100303.28;;;-0.95;28.22
63339;BME280;47485;51.378;-1.342;2022-12-16T06:59:06;100311.62;;;-0.81;28.48
63339;BME280;47485;51.378;-1.342;2022-12-16T07:01:33;100313.59;;;-0.83;29.15
63339;BME280;47485;51.378;-1.342;2022-12-16T07:03:59;100318.16;;;-1.59;29.15
63339;BME280;47485;51.378;-1.342;2022-12-16T07:06:26;100319.84;;;-1.61;29.60
63339;BME280;47485;51.378;-1.342;2022-12-16T07:08:53;100325.41;;;-1.38;29.68
63339;BME280;47485;51.378;-1.342;2022-12-16T07:11:20;100328.08;;;-2.16;29.90
63339;BME280;47485;51.378;-1.342;2022-12-16T07:13:46;100330.62;;;-2.23;29.38
63339;BME280;47485;51.378;-1.342;2022-12-16T07:16:13;100328.82;;;-0.99;28.78
63339;BME280;47485;51.378;-1.342;2022-12-16T07:18:40;100330.23;;;-1.31;28.57
63339;BME280;47485;51.378;-1.342;2022-12-16T07:21:06;100326.91;;;-1.31;28.09
63339;BME280;47485;51.378;-1.342;2022-12-16T07:23:34;100326.81;;;-0.47;27.87
63339;BME280;47485;51.378;-1.342;2022-12-16T07:26:01;100323.53;;;-1.01;27.42
63339;BME280;47485;51.378;-1.342;2022-12-16T07:28:27;100321.09;;;-1.13;26.70
63339;BME280;47485;51.378;-1.342;2022-12-16T07:30:54;100320.09;;;-1.24;26.68
63339;BME280;47485;51.378;-1.342;2022-12-16T07:33:21;100317.29;;;-0.99;26.64
63339;BME280;47485;51.378;-1.342;2022-12-16T07:35:48;100319.04;;;-0.65;26.52
63339;BME280;47485;51.378;-1.342;2022-12-16T07:38:15;100319.37;;;-0.33;25.78
63339;BME280;47485;51.378;-1.342;2022-12-16T07:40:42;100321.54;;;-1.00;25.78
63339;BME280;47485;51.378;-1.342;2022-12-16T07:43:09;100321.99;;;0.45;25.25
63339;BME280;47485;51.378;-1.342;2022-12-16T07:45:35;100322.93;;;-0.46;25.48
63339;BME280;47485;51.378;-1.342;2022-12-16T07:48:02;100326.67;;;0.04;26.23
63339;BME280;47485;51.378;-1.342;2022-12-16T07:50:29;100332.69;;;-0.21;27.07
63339;BME280;47485;51.378;-1.342;2022-12-16T07:52:58;100339.43;;;-1.12;27.47
63339;BME280;47485;51.378;-1.342;2022-12-16T07:55:26;100345.54;;;-2.18;27.50
63339;BME280;47485;51.378;-1.342;2022-12-16T07:57:53;100352.70;;;-2.10;28.22
63339;BME280;47485;51.378;-1.342;2022-12-16T08:00:20;100360.54;;;-1.61;29.68
63339;BME280;47485;51.378;-1.342;2022-12-16T08:02:54;100364.68;;;-3.44;30.14
63339;BME280;47485;51.378;-1.342;2022-12-16T08:05:21;100366.16;;;-3.16;29.79
63339;BME280;47485;51.378;-1.342;2022-12-16T08:07:48;100362.05;;;-2.49;29.59
63339;BME280;47485;51.378;-1.342;2022-12-16T08:10:15;100359.54;;;-1.49;29.56
63339;BME280;47485;51.378;-1.342;2022-12-16T08:12:43;100361.28;;;-2.43;29.66
63339;BME280;47485;51.378;-1.342;2022-12-16T08:15:10;100365.68;;;-6.48;32.08
63339;BME280;47485;51.378;-1.342;2022-12-16T08:17:37;100368.69;;;-4.60;30.26
63339;BME280;47485;51.378;-1.342;2022-12-16T08:20:05;100369.34;;;-3.77;28.68
63339;BME280;47485;51.378;-1.342;2022-12-16T08:22:32;100366.71;;;-0.66;25.82
63339;BME280;47485;51.378;-1.342;2022-12-16T08:24:59;100370.49;;;-1.35;26.64
63339;BME280;47485;51.378;-1.342;2022-12-16T08:27:26;100372.25;;;-0.59;26.12
63339;BME280;47485;51.378;-1.342;2022-12-16T08:29:53;100377.99;;;-2.49;27.29
63339;BME280;47485;51.378;-1.342;2022-12-16T08:32:21;100377.37;;;-2.09;26.72
63339;BME280;47485;51.378;-1.342;2022-12-16T08:34:47;100381.46;;;-0.73;25.13
63339;BME280;47485;51.378;-1.342;2022-12-16T08:37:15;100385.01;;;1.45;25.13
63339;BME280;47485;51.378;-1.342;2022-12-16T08:39:42;100386.42;;;-1.45;25.72
63339;BME280;47485;51.378;-1.342;2022-12-16T08:42:09;100389.39;;;-1.73;26.15
63339;BME280;47485;51.378;-1.342;2022-12-16T08:44:36;100392.47;;;0.20;25.93
63339;BME280;47485;51.378;-1.342;2022-12-16T08:47:04;100392.83;;;-0.98;27.24
63339;BME280;47485;51.378;-1.342;2022-12-16T08:49:31;100398.29;;;-2.60;28.42
63339;BME280;47485;51.378;-1.342;2022-12-16T08:51:58;100397.87;;;-2.31;28.70
63339;BME280;47485;51.378;-1.342;2022-12-16T08:54:24;100398.08;;;-2.28;29.18
63339;BME280;47485;51.378;-1.342;2022-12-16T08:56:51;100399.90;;;-1.96;29.82
63339;BME280;47485;51.378;-1.342;2022-12-16T08:59:19;100402.64;;;-1.32;29.71
63339;BME280;47485;51.378;-1.342;2022-12-16T09:01:46;100405.86;;;-2.05;29.42
63339;BME280;47485;51.378;-1.342;2022-12-16T09:04:13;100407.85;;;-2.03;28.91
63339;BME280;47485;51.378;-1.342;2022-12-16T09:06:40;100413.23;;;-3.32;31.23
63339;BME280;47485;51.378;-1.342;2022-12-16T09:09:07;100412.58;;;-4.52;32.00
63339;BME280;47485;51.378;-1.342;2022-12-16T09:11:34;100413.55;;;-3.08;31.80
63339;BME280;47485;51.378;-1.342;2022-12-16T09:14:01;100414.92;;;-4.94;32.92
63339;BME280;47485;51.378;-1.342;2022-12-16T09:16:28;100419.70;;;-3.27;33.10
63339;BME280;47485;51.378;-1.342;2022-12-16T09:18:54;100421.44;;;-4.43;32.59
63339;BME280;47485;51.378;-1.342;2022-12-16T09:21:21;100422.28;;;-5.00;31.95
63339;BME280;47485;51.378;-1.342;2022-12-16T09:23:48;100424.05;;;-3.64;31.02
63339;BME280;47485;51.378;-1.342;2022-12-16T09:26:15;100417.45;;;-2.52;28.67
63339;BME280;47485;51.378;-1.342;2022-12-16T09:28:41;100420.26;;;-1.81;29.54
63339;BME280;47485;51.378;-1.342;2022-12-16T09:31:08;100418.94;;;-3.75;32.32
63339;BME280;47485;51.378;-1.342;2022-12-16T09:33:35;100423.97;;;-3.64;33.90
63339;BME280;47485;51.378;-1.342;2022-12-16T09:36:01;100428.80;;;-4.29;34.87
63339;BME280;47485;51.378;-1.342;2022-12-16T09:38:28;100430.07;;;-3.48;33.81
63339;BME280;47485;51.378;-1.342;2022-12-16T09:40:56;100432.12;;;-3.31;31.93
63339;BME280;47485;51.378;-1.342;2022-12-16T09:43:34;100432.27;;;-1.21;30.43
63339;BME280;47485;51.378;-1.342;2022-12-16T09:46:10;100430.40;;;0.70;29.91
63339;BME280;47485;51.378;-1.342;2022-12-16T09:48:44;100430.36;;;-1.05;30.83
63339;BME280;47485;51.378;-1.342;2022-12-16T09:51:15;100434.66;;;-2.45;30.79
63339;BME280;47485;51.378;-1.342;2022-12-16T09:53:43;100440.95;;;-2.55;31.12
63339;BME280;47485;51.378;-1.342;2022-12-16T09:56:15;100444.60;;;-4.86;32.23
63339;BME280;47485;51.378;-1.342;2022-12-16T09:58:46;100437.07;;;-1.28;28.82
63339;BME280;47485;51.378;-1.342;2022-12-16T10:01:16;100443.28;;;-1.00;29.55
63339;BME280;47485;51.378;-1.342;2022-12-16T10:03:44;100448.04;;;-0.73;30.21
63339;BME280;47485;51.378;-1.342;2022-12-16T10:06:23;100454.11;;;-1.67;31.13
63339;BME280;47485;51.378;-1.342;2022-12-16T10:09:01;100457.07;;;-1.90;32.22
63339;BME280;47485;51.378;-1.342;2022-12-16T10:11:45;100458.66;;;-1.71;32.41
63339;BME280;47485;51.378;-1.342;2022-12-16T10:14:20;100460.12;;;-1.53;31.69
63339;BME280;47485;51.378;-1.342;2022-12-16T10:16:56;100468.62;;;-2.21;32.71
63339;BME280;47485;51.378;-1.342;2022-12-16T10:19:32;100475.80;;;-3.81;32.29
63339;BME280;47485;51.378;-1.342;2022-12-16T10:22:06;100469.91;;;-4.00;30.73
63339;BME280;47485;51.378;-1.342;2022-12-16T10:24:48;100465.10;;;-0.59;27.91
63339;BME280;47485;51.378;-1.342;2022-12-16T10:27:22;100462.15;;;0.86;26.76
63339;BME280;47485;51.378;-1.342;2022-12-16T10:29:53;100464.74;;;2.26;27.70
63339;BME280;47485;51.378;-1.342;2022-12-16T10:32:25;100467.26;;;0.74;27.62
63339;BME280;47485;51.378;-1.342;2022-12-16T10:34:53;100467.94;;;0.82;29.63
63339;BME280;47485;51.378;-1.342;2022-12-16T10:37:30;100469.52;;;-0.49;32.05
63339;BME280;47485;51.378;-1.342;2022-12-16T10:39:59;100473.02;;;-0.57;33.31
63339;BME280;47485;51.378;-1.342;2022-12-16T10:42:30;100475.47;;;-3.02;33.30
63339;BME280;47485;51.378;-1.342;2022-12-16T10:45:00;100474.60;;;-2.56;33.06
63339;BME280;47485;51.378;-1.342;2022-12-16T10:47:29;100475.09;;;-2.42;31.08
63339;BME280;47485;51.378;-1.342;2022-12-16T10:49:56;100471.93;;;0.79;28.32
63339;BME280;47485;51.378;-1.342;2022-12-16T10:52:24;100470.41;;;1.30;29.87
63339;BME280;47485;51.378;-1.342;2022-12-16T10:54:58;100468.47;;;1.00;30.66
63339;BME280;47485;51.378;-1.342;2022-12-16T10:57:36;100467.53;;;0.48;32.21
63339;BME280;47485;51.378;-1.342;2022-12-16T11:00:11;100471.03;;;0.43;32.61
63339;BME280;47485;51.378;-1.342;2022-12-16T11:02:39;100473.55;;;-0.53;34.26
63339;BME280;47485;51.378;-1.342;2022-12-16T11:05:22;100467.81;;;-0.51;33.50
63339;BME280;47485;51.378;-1.342;2022-12-16T11:07:54;100464.34;;;-1.20;32.52
63339;BME280;47485;51.378;-1.342;2022-12-16T11:10:24;100461.93;;;0.77;31.36
63339;BME280;47485;51.378;-1.342;2022-12-16T11:12:52;100465.04;;;-0.37;31.85
63339;BME280;47485;51.378;-1.342;2022-12-16T11:15:23;100466.41;;;0.40;32.28
63339;BME280;47485;51.378;-1.342;2022-12-16T11:18:01;100465.47;;;0.32;31.64
63339;BME280;47485;51.378;-1.342;2022-12-16T11:20:28;100464.31;;;2.30;30.32
63339;BME280;47485;51.378;-1.342;2022-12-16T11:23:27;100459.06;;;1.47;29.69
63339;BME280;47485;51.378;-1.342;2022-12-16T11:26:03;100462.55;;;1.84;30.07
63339;BME280;47485;51.378;-1.342;2022-12-16T11:28:31;100457.35;;;2.01;30.08
63339;BME280;47485;51.378;-1.342;2022-12-16T11:31:01;100458.26;;;2.06;29.98
63339;BME280;47485;51.378;-1.342;2022-12-16T11:33:28;100463.77;;;1.81;30.80
63339;BME280;47485;51.378;-1.342;2022-12-16T11:36:08;100467.46;;;1.10;31.05
63339;BME280;47485;51.378;-1.342;2022-12-16T11:38:40;100466.93;;;0.14;30.20
63339;BME280;47485;51.378;-1.342;2022-12-16T11:41:17;100469.17;;;2.31;30.15
63339;BME280;47485;51.378;-1.342;2022-12-16T11:43:48;100473.57;;;1.32;30.38
63339;BME280;47485;51.378;-1.342;2022-12-16T11:46:25;100473.09;;;1.88;30.95
63339;BME280;47485;51.378;-1.342;2022-12-16T11:48:57;100472.23;;;0.31;31.52
63339;BME280;47485;51.378;-1.342;2022-12-16T11:51:28;100471.32;;;0.71;32.12
63339;BME280;47485;51.378;-1.342;2022-12-16T11:53:59;100470.23;;;0.09;31.92
63339;BME280;47485;51.378;-1.342;2022-12-16T11:56:33;100466.76;;;1.91;31.19
63339;BME280;47485;51.378;-1.342;2022-12-16T11:59:05;100466.69;;;1.38;30.54
63339;BME280;47485;51.378;-1.342;2022-12-16T12:01:40;100468.05;;;1.91;29.87
63339;BME280;47485;51.378;-1.342;2022-12-16T12:04:12;100469.06;;;0.77;30.74
63339;BME280;47485;51.378;-1.342;2022-12-16T12:06:52;100465.16;;;2.65;28.89
63339;BME280;47485;51.378;-1.342;2022-12-16T12:09:22;100460.51;;;3.95;28.54
63339;BME280;47485;51.378;-1.342;2022-12-16T12:11:53;100460.39;;;2.11;28.76
63339;BME280;47485;51.378;-1.342;2022-12-16T12:14:30;100457.85;;;3.26;28.79
63339;BME280;47485;51.378;-1.342;2022-12-16T12:17:07;100463.27;;;2.75;29.64
63339;BME280;47485;51.378;-1.342;2022-12-16T12:19:47;100462.88;;;3.28;29.79
63339;BME280;47485;51.378;-1.342;2022-12-16T12:22:26;100462.69;;;2.76;30.18
63339;BME280;47485;51.378;-1.342;2022-12-16T12:25:04;100458.00;;;3.83;29.95
63339;BME280;47485;51.378;-1.342;2022-12-16T12:27:43;100454.64;;;1.89;30.27
63339;BME280;47485;51.378;-1.342;2022-12-16T12:30:14;100453.36;;;1.63;29.98
63339;BME280;47485;51.378;-1.342;2022-12-16T12:32:52;100449.56;;;2.82;29.42
63339;BME280;47485;51.378;-1.342;2022-12-16T12:35:35;100447.98;;;2.30;28.62
63339;BME280;47485;51.378;-1.342;2022-12-16T12:38:11;100447.10;;;4.33;27.09
63339;BME280;47485;51.378;-1.342;2022-12-16T12:40:48;100447.98;;;2.56;27.94
63339;BME280;47485;51.378;-1.342;2022-12-16T12:43:25;100447.86;;;3.77;27.04
63339;BME280;47485;51.378;-1.342;2022-12-16T12:46:00;100449.08;;;4.88;25.47
63339;BME280;47485;51.378;-1.342;2022-12-16T12:48:36;100443.99;;;5.00;25.37
63339;BME280;47485;51.378;-1.342;2022-12-16T12:51:14;100443.68;;;6.17;25.61
63339;BME280;47485;51.378;-1.342;2022-12-16T12:53:49;100445.62;;;3.97;26.40
63339;BME280;47485;51.378;-1.342;2022-12-16T12:56:26;100444.58;;;3.53;26.81